Flugplatz - Wetter - Augsburg

[Quelle: ADDS]
METAR
EDMA 270620Z 16003KT 0400 R25/0500N FG VV001 04/04 Q1027 =
EDMA 270500Z 2706/2715 VRB03KT 0700 FG BKN002 PROB30 TEMPO 2706/2709 0250 FG BKN001 BECMG 2709/2711 7000 SCT012
TAF
EDMA 270500Z 2706/2715 VRB03KT 0700 FG BKN002 PROB30 TEMPO 2706/2709 0250 FG BKN001 BECMG 2709/2711 7000 SCT012 =
SR / SS: 05:55 / 16:07 UTC (Augsburg 2021-10-27)

Flugplatz - Wetter - Laupheim

[Quelle: ADDS]
METAR
ETHL 270620Z 31001KT 0100 R27/0300N FG VV000 03/03 Q1027 RED RED =
ETHL 270410Z 2705/2714 VRB02KT 0300 FG VV000 BECMG 2710/2712 06005KT 8000 NSW FEW004
TAF
ETHL 270410Z 2705/2714 VRB02KT 0300 FG VV000 BECMG 2710/2712 06005KT 8000 NSW FEW004 =
SR / SS: 05:59 / 16:11 UTC (Laupheim 2021-10-27)

Flugplatz - Wetter - Memmingen

[Quelle: ADDS]
METAR
EDJA 270620Z VRB01KT CAVOK 00/M00 Q1027 =
EDJA 270500Z 2706/2715 VRB03KT 8000 SCT008 PROB30 TEMPO 2706/2709 2000 BCFG BKN008 BECMG 2710/2712 05007KT
TAF
EDJA 270500Z 2706/2715 VRB03KT 8000 SCT008 PROB30 TEMPO 2706/2709 2000 BCFG BKN008 BECMG 2710/2712 05007KT =
SR / SS: 05:56 / 16:10 UTC (Memmingen 2021-10-27)

Flugplatz - Wetter - Neuburg/Donau

[Quelle: ADDS]
METAR
ETSN 270620Z VRB01KT 0100 FG VV001 04/04 Q1027 RED RED =
ETSN 270356Z 2705/2714 VRB02KT 0400 FG VV001 BECMG 2709/2711 10004KT 3000 BR BKN003 BECMG 2711/2713 08005KT 5000 BR BKN010 BECMG 2713/2714 08005KT 9999 NSW FEW015 BY ETGL
TAF
ETSN 270356Z 2705/2714 VRB02KT 0400 FG VV001 BECMG 2709/2711 10004KT 3000 BR BKN003 BECMG 2711/2713 08005KT 5000 BR BKN010 BECMG 2713/2714 08005KT 9999 NSW FEW015 BY ETGL =
SR / SS: 05:53 / 16:04 UTC (Neuburg 2021-10-27)

Flugplatz - Wetter - Stuttgart

[Quelle: ADDS]
METAR
EDDS 270620Z VRB01KT 1200 0800E R07/P2000N BCFG FEW001 01/01 Q1027 TEMPO 0800 FG BKN001 =
EDDS 270500Z 2706/2806 VRB02KT 0800 FG SCT001 TEMPO 2706/2709 0200 FG VV001 BECMG 2709/2711 9999 BECMG 2722/2724 4000 BR TEMPO 2800/2806 0300 FG BKN002
TAF
EDDS 270500Z 2706/2806 VRB02KT 0800 FG SCT001 TEMPO 2706/2709 0200 FG VV001 BECMG 2709/2711 9999 BECMG 2722/2724 4000 BR TEMPO 2800/2806 0300 FG BKN002 =
SR / SS: 06:01 / 16:12 UTC (Stuttgart 2021-10-27)

Flugplatz - Wetter - Niederstetten

[Quelle: ADDS]
METAR
ETHN 270620Z 20003KT 9999 VCFG FEW027 BKN360 05/05 Q1026 BLU+BLU+ =
AMD ETHN 270623Z 2706/2714 18005KT 9999 NSW SCT020
TAF
AMD ETHN 270623Z 2706/2714 18005KT 9999 NSW SCT020 =
SR / SS: 06:01 / 16:09 UTC (Niederstetten 2021-10-27)